sensor_id;sensor_type;location;lat;lon;timestamp;pressure;altitude;pressure_sealevel;temperature;humidity
15932;BME280;8065;49.520;11.284;2023-02-10T00:01:01;99277.84;;;0.21;69.28
15932;BME280;8065;49.520;11.284;2023-02-10T00:03:27;99276.00;;;0.35;68.48
15932;BME280;8065;49.520;11.284;2023-02-10T00:05:55;99277.59;;;0.36;69.11
15932;BME280;8065;49.520;11.284;2023-02-10T00:08:22;99275.59;;;0.38;68.68
15932;BME280;8065;49.520;11.284;2023-02-10T00:10:48;99270.94;;;0.40;69.01
15932;BME280;8065;49.520;11.284;2023-02-10T00:13:15;99264.03;;;0.07;70.66
15932;BME280;8065;49.520;11.284;2023-02-10T00:15:41;99269.25;;;0.07;70.02
15932;BME280;8065;49.520;11.284;2023-02-10T00:18:08;99274.44;;;0.20;69.63
15932;BME280;8065;49.520;11.284;2023-02-10T00:20:35;99273.63;;;0.26;69.26
15932;BME280;8065;49.520;11.284;2023-02-10T00:23:03;99272.38;;;0.36;68.85
15932;BME280;8065;49.520;11.284;2023-02-10T00:25:32;99275.25;;;0.14;69.62
15932;BME280;8065;49.520;11.284;2023-02-10T00:27:58;99266.19;;;0.17;69.88
15932;BME280;8065;49.520;11.284;2023-02-10T00:30:25;99270.84;;;0.08;70.26
15932;BME280;8065;49.520;11.284;2023-02-10T00:32:51;99271.84;;;0.07;70.15
15932;BME280;8065;49.520;11.284;2023-02-10T00:35:18;99285.34;;;0.04;70.74
15932;BME280;8065;49.520;11.284;2023-02-10T00:37:44;99285.53;;;0.09;70.51
15932;BME280;8065;49.520;11.284;2023-02-10T00:40:12;99296.13;;;0.27;69.60
15932;BME280;8065;49.520;11.284;2023-02-10T00:42:39;99298.88;;;0.46;68.87
15932;BME280;8065;49.520;11.284;2023-02-10T00:45:06;99291.66;;;0.41;68.55
15932;BME280;8065;49.520;11.284;2023-02-10T00:47:32;99289.03;;;0.41;68.73
15932;BME280;8065;49.520;11.284;2023-02-10T00:49:59;99290.69;;;0.29;68.49
15932;BME280;8065;49.520;11.284;2023-02-10T00:52:25;99294.50;;;0.33;68.32
15932;BME280;8065;49.520;11.284;2023-02-10T00:54:52;99286.50;;;0.21;68.45
15932;BME280;8065;49.520;11.284;2023-02-10T00:57:20;99288.91;;;0.16;68.64
15932;BME280;8065;49.520;11.284;2023-02-10T00:59:46;99294.34;;;0.15;68.23
15932;BME280;8065;49.520;11.284;2023-02-10T01:02:13;99291.03;;;-0.19;68.54
15932;BME280;8065;49.520;11.284;2023-02-10T01:04:39;99295.25;;;-0.31;69.46
15932;BME280;8065;49.520;11.284;2023-02-10T01:07:06;99292.66;;;-0.38;69.57
15932;BME280;8065;49.520;11.284;2023-02-10T01:09:32;99292.22;;;-0.21;69.11
15932;BME280;8065;49.520;11.284;2023-02-10T01:11:58;99296.66;;;-0.28;68.80
15932;BME280;8065;49.520;11.284;2023-02-10T01:14:26;99301.69;;;-0.34;68.77
15932;BME280;8065;49.520;11.284;2023-02-10T01:16:53;99305.09;;;-0.33;69.08
15932;BME280;8065;49.520;11.284;2023-02-10T01:19:19;99310.72;;;-0.29;68.92
15932;BME280;8065;49.520;11.284;2023-02-10T01:21:46;99311.53;;;-0.36;68.95
15932;BME280;8065;49.520;11.284;2023-02-10T01:24:12;99312.53;;;-0.37;69.37
15932;BME280;8065;49.520;11.284;2023-02-10T01:26:39;99305.50;;;-0.43;69.41
15932;BME280;8065;49.520;11.284;2023-02-10T01:29:05;99314.53;;;-0.39;68.95
15932;BME280;8065;49.520;11.284;2023-02-10T01:31:33;99320.34;;;-0.63;70.12
15932;BME280;8065;49.520;11.284;2023-02-10T01:33:59;99317.16;;;-0.52;69.33
15932;BME280;8065;49.520;11.284;2023-02-10T01:36:26;99315.94;;;-0.56;70.18
15932;BME280;8065;49.520;11.284;2023-02-10T01:38:53;99313.13;;;-0.41;69.07
15932;BME280;8065;49.520;11.284;2023-02-10T01:41:21;99317.16;;;-0.52;69.06
15932;BME280;8065;49.520;11.284;2023-02-10T01:43:57;99316.31;;;-0.79;69.72
15932;BME280;8065;49.520;11.284;2023-02-10T01:46:24;99324.75;;;-0.90;70.25
15932;BME280;8065;49.520;11.284;2023-02-10T01:48:52;99335.19;;;-0.90;69.92
15932;BME280;8065;49.520;11.284;2023-02-10T01:51:24;99331.38;;;-0.87;69.85
15932;BME280;8065;49.520;11.284;2023-02-10T01:53:52;99323.94;;;-0.90;70.39
15932;BME280;8065;49.520;11.284;2023-02-10T01:56:19;99323.13;;;-0.97;69.91
15932;BME280;8065;49.520;11.284;2023-02-10T01:58:45;99324.13;;;-0.98;70.13
15932;BME280;8065;49.520;11.284;2023-02-10T02:01:13;99326.50;;;-1.10;70.73
15932;BME280;8065;49.520;11.284;2023-02-10T02:03:40;99328.72;;;-1.07;70.96
15932;BME280;8065;49.520;11.284;2023-02-10T02:06:08;99324.31;;;-1.00;70.16
15932;BME280;8065;49.520;11.284;2023-02-10T02:08:35;99323.50;;;-1.14;70.87
15932;BME280;8065;49.520;11.284;2023-02-10T02:11:10;99325.66;;;-1.24;70.55
15932;BME280;8065;49.520;11.284;2023-02-10T02:13:50;99325.00;;;-1.39;71.88
15932;BME280;8065;49.520;11.284;2023-02-10T02:16:27;99317.38;;;-1.41;71.87
15932;BME280;8065;49.520;11.284;2023-02-10T02:19:00;99312.13;;;-1.47;71.53
15932;BME280;8065;49.520;11.284;2023-02-10T02:21:45;99316.50;;;-1.54;71.54
15932;BME280;8065;49.520;11.284;2023-02-10T02:24:26;99320.09;;;-1.62;71.51
15932;BME280;8065;49.520;11.284;2023-02-10T02:27:08;99318.91;;;-1.59;71.22
15932;BME280;8065;49.520;11.284;2023-02-10T02:30:01;99327.72;;;-1.60;71.36
15932;BME280;8065;49.520;11.284;2023-02-10T02:32:33;99332.66;;;-1.72;72.74
15932;BME280;8065;49.520;11.284;2023-02-10T02:35:04;99342.50;;;-1.68;71.77
15932;BME280;8065;49.520;11.284;2023-02-10T02:37:33;99337.28;;;-1.68;72.14
15932;BME280;8065;49.520;11.284;2023-02-10T02:40:03;99339.66;;;-1.73;71.69
15932;BME280;8065;49.520;11.284;2023-02-10T02:42:31;99342.47;;;-1.81;71.94
15932;BME280;8065;49.520;11.284;2023-02-10T02:45:01;99341.28;;;-1.78;72.18
15932;BME280;8065;49.520;11.284;2023-02-10T02:47:40;99356.97;;;-1.58;71.04
15932;BME280;8065;49.520;11.284;2023-02-10T02:50:19;99356.41;;;-1.54;70.86
15932;BME280;8065;49.520;11.284;2023-02-10T02:52:56;99345.25;;;-1.41;69.72
15932;BME280;8065;49.520;11.284;2023-02-10T02:55:30;99343.78;;;-1.50;69.48
15932;BME280;8065;49.520;11.284;2023-02-10T02:58:02;99347.16;;;-1.56;69.98
15932;BME280;8065;49.520;11.284;2023-02-10T03:00:33;99345.72;;;-1.66;70.00
15932;BME280;8065;49.520;11.284;2023-02-10T03:03:02;99346.91;;;-1.75;70.44
15932;BME280;8065;49.520;11.284;2023-02-10T03:05:31;99345.63;;;-1.85;70.90
15932;BME280;8065;49.520;11.284;2023-02-10T03:07:58;99352.56;;;-1.99;71.49
15932;BME280;8065;49.520;11.284;2023-02-10T03:10:24;99348.28;;;-2.07;71.80
15932;BME280;8065;49.520;11.284;2023-02-10T03:12:51;99341.44;;;-2.14;72.48
15932;BME280;8065;49.520;11.284;2023-02-10T03:15:17;99346.13;;;-2.03;71.90
15932;BME280;8065;49.520;11.284;2023-02-10T03:17:44;99347.78;;;-1.95;71.09
15932;BME280;8065;49.520;11.284;2023-02-10T03:20:12;99349.56;;;-1.96;70.89
15932;BME280;8065;49.520;11.284;2023-02-10T03:22:40;99338.16;;;-1.95;71.32
15932;BME280;8065;49.520;11.284;2023-02-10T03:25:07;99347.97;;;-1.97;70.95
15932;BME280;8065;49.520;11.284;2023-02-10T03:27:34;99340.56;;;-1.93;70.66
15932;BME280;8065;49.520;11.284;2023-02-10T03:30:01;99344.38;;;-1.96;70.52
15932;BME280;8065;49.520;11.284;2023-02-10T03:32:27;99349.19;;;-1.93;70.60
15932;BME280;8065;49.520;11.284;2023-02-10T03:34:54;99350.81;;;-1.92;70.91
15932;BME280;8065;49.520;11.284;2023-02-10T03:37:22;99350.75;;;-1.99;70.72
15932;BME280;8065;49.520;11.284;2023-02-10T03:39:48;99351.94;;;-2.01;71.12
15932;BME280;8065;49.520;11.284;2023-02-10T03:42:15;99341.81;;;-2.17;70.88
15932;BME280;8065;49.520;11.284;2023-02-10T03:44:41;99352.78;;;-1.94;70.80
15932;BME280;8065;49.520;11.284;2023-02-10T03:47:07;99354.81;;;-1.89;70.59
15932;BME280;8065;49.520;11.284;2023-02-10T03:49:34;99352.38;;;-1.98;70.43
15932;BME280;8065;49.520;11.284;2023-02-10T03:52:00;99358.75;;;-2.00;70.03
15932;BME280;8065;49.520;11.284;2023-02-10T03:54:28;99360.31;;;-2.06;70.41
15932;BME280;8065;49.520;11.284;2023-02-10T03:56:56;99363.88;;;-2.13;71.41
15932;BME280;8065;49.520;11.284;2023-02-10T03:59:23;99362.88;;;-1.84;70.34
15932;BME280;8065;49.520;11.284;2023-02-10T04:01:50;99361.84;;;-1.90;69.61
15932;BME280;8065;49.520;11.284;2023-02-10T04:04:17;99357.16;;;-2.01;70.48
15932;BME280;8065;49.520;11.284;2023-02-10T04:06:43;99358.38;;;-1.97;70.07
15932;BME280;8065;49.520;11.284;2023-02-10T04:09:10;99367.56;;;-2.01;70.08
15932;BME280;8065;49.520;11.284;2023-02-10T04:11:38;99374.00;;;-1.97;70.75
15932;BME280;8065;49.520;11.284;2023-02-10T04:14:04;99371.53;;;-2.05;71.37
15932;BME280;8065;49.520;11.284;2023-02-10T04:16:31;99369.94;;;-2.06;71.42
15932;BME280;8065;49.520;11.284;2023-02-10T04:18:58;99374.75;;;-2.03;70.64
15932;BME280;8065;49.520;11.284;2023-02-10T04:21:25;99377.69;;;-2.13;71.16
15932;BME280;8065;49.520;11.284;2023-02-10T04:23:52;99382.38;;;-2.02;69.65
15932;BME280;8065;49.520;11.284;2023-02-10T04:26:18;99389.03;;;-2.20;70.74
15932;BME280;8065;49.520;11.284;2023-02-10T04:28:47;99389.03;;;-2.20;71.12
15932;BME280;8065;49.520;11.284;2023-02-10T04:31:14;99394.31;;;-2.14;70.65
15932;BME280;8065;49.520;11.284;2023-02-10T04:33:42;99394.22;;;-1.99;69.92
15932;BME280;8065;49.520;11.284;2023-02-10T04:36:08;99391.72;;;-1.86;69.10
15932;BME280;8065;49.520;11.284;2023-02-10T04:38:35;99388.13;;;-1.85;69.42
15932;BME280;8065;49.520;11.284;2023-02-10T04:41:01;99401.38;;;-1.80;69.67
15932;BME280;8065;49.520;11.284;2023-02-10T04:43:30;99406.97;;;-1.83;69.54
15932;BME280;8065;49.520;11.284;2023-02-10T04:45:57;99408.97;;;-1.85;69.76
15932;BME280;8065;49.520;11.284;2023-02-10T04:48:24;99417.91;;;-1.94;69.17
15932;BME280;8065;49.520;11.284;2023-02-10T04:50:50;99411.22;;;-2.03;69.30
15932;BME280;8065;49.520;11.284;2023-02-10T04:53:18;99409.97;;;-2.07;69.38
15932;BME280;8065;49.520;11.284;2023-02-10T04:55:44;99416.44;;;-2.03;69.53
15932;BME280;8065;49.520;11.284;2023-02-10T04:58:11;99416.44;;;-2.03;69.12
15932;BME280;8065;49.520;11.284;2023-02-10T05:00:37;99419.31;;;-1.91;69.44
15932;BME280;8065;49.520;11.284;2023-02-10T05:03:05;99417.81;;;-2.28;69.09
15932;BME280;8065;49.520;11.284;2023-02-10T05:05:31;99411.34;;;-2.11;68.87
15932;BME280;8065;49.520;11.284;2023-02-10T05:07:58;99413.25;;;-1.99;68.99
15932;BME280;8065;49.520;11.284;2023-02-10T05:10:24;99426.84;;;-2.03;68.31
15932;BME280;8065;49.520;11.284;2023-02-10T05:12:50;99426.72;;;-2.16;68.55
15932;BME280;8065;49.520;11.284;2023-02-10T05:15:17;99427.34;;;-2.36;68.47
15932;BME280;8065;49.520;11.284;2023-02-10T05:17:43;99424.88;;;-2.44;68.92
15932;BME280;8065;49.520;11.284;2023-02-10T05:20:11;99418.88;;;-2.44;69.67
15932;BME280;8065;49.520;11.284;2023-02-10T05:22:39;99414.84;;;-2.47;69.96
15932;BME280;8065;49.520;11.284;2023-02-10T05:25:07;99417.91;;;-2.58;69.64
15932;BME280;8065;49.520;11.284;2023-02-10T05:27:33;99423.13;;;-2.58;69.83
15932;BME280;8065;49.520;11.284;2023-02-10T05:30:00;99424.88;;;-2.65;70.41
15932;BME280;8065;49.520;11.284;2023-02-10T05:32:26;99419.44;;;-2.70;69.90
15932;BME280;8065;49.520;11.284;2023-02-10T05:34:53;99428.94;;;-2.56;69.93
15932;BME280;8065;49.520;11.284;2023-02-10T05:37:20;99434.28;;;-2.64;70.71
15932;BME280;8065;49.520;11.284;2023-02-10T05:39:47;99436.66;;;-2.69;70.29
15932;BME280;8065;49.520;11.284;2023-02-10T05:42:13;99436.13;;;-2.79;70.73
15932;BME280;8065;49.520;11.284;2023-02-10T05:44:40;99435.31;;;-2.80;71.01
15932;BME280;8065;49.520;11.284;2023-02-10T05:47:06;99434.16;;;-2.77;71.30
15932;BME280;8065;49.520;11.284;2023-02-10T05:49:33;99442.72;;;-2.62;70.12
15932;BME280;8065;49.520;11.284;2023-02-10T05:51:59;99451.88;;;-2.66;69.78
15932;BME280;8065;49.520;11.284;2023-02-10T05:54:27;99452.47;;;-2.85;71.31
15932;BME280;8065;49.520;11.284;2023-02-10T05:56:54;99444.59;;;-3.07;71.67
15932;BME280;8065;49.520;11.284;2023-02-10T05:59:21;99442.44;;;-2.88;71.46
15932;BME280;8065;49.520;11.284;2023-02-10T06:01:47;99437.94;;;-2.80;70.68
15932;BME280;8065;49.520;11.284;2023-02-10T06:04:14;99446.34;;;-2.56;69.67
15932;BME280;8065;49.520;11.284;2023-02-10T06:06:40;99452.88;;;-2.46;69.78
15932;BME280;8065;49.520;11.284;2023-02-10T06:09:07;99457.63;;;-2.49;69.59
15932;BME280;8065;49.520;11.284;2023-02-10T06:11:35;99458.81;;;-2.52;69.47
15932;BME280;8065;49.520;11.284;2023-02-10T06:14:01;99464.09;;;-2.67;68.95
15932;BME280;8065;49.520;11.284;2023-02-10T06:16:28;99465.00;;;-2.74;69.11
15932;BME280;8065;49.520;11.284;2023-02-10T06:18:54;99471.94;;;-2.96;70.79
15932;BME280;8065;49.520;11.284;2023-02-10T06:21:21;99480.19;;;-2.92;70.16
15932;BME280;8065;49.520;11.284;2023-02-10T06:23:48;99483.38;;;-2.76;70.12
15932;BME280;8065;49.520;11.284;2023-02-10T06:26:15;99483.22;;;-2.74;70.41
15932;BME280;8065;49.520;11.284;2023-02-10T06:28:43;99485.00;;;-2.75;69.85
15932;BME280;8065;49.520;11.284;2023-02-10T06:31:10;99484.03;;;-2.88;69.62
15932;BME280;8065;49.520;11.284;2023-02-10T06:33:36;99483.66;;;-2.85;70.21
15932;BME280;8065;49.520;11.284;2023-02-10T06:36:03;99496.94;;;-2.80;69.58
15932;BME280;8065;49.520;11.284;2023-02-10T06:38:31;99498.28;;;-2.84;69.84
15932;BME280;8065;49.520;11.284;2023-02-10T06:40:57;99503.50;;;-2.84;69.52
15932;BME280;8065;49.520;11.284;2023-02-10T06:43:24;99512.56;;;-2.95;70.74
15932;BME280;8065;49.520;11.284;2023-02-10T06:45:52;99513.72;;;-2.98;71.42
15932;BME280;8065;49.520;11.284;2023-02-10T06:48:18;99521.97;;;-2.94;71.42
15932;BME280;8065;49.520;11.284;2023-02-10T06:50:45;99521.84;;;-2.71;71.58
15932;BME280;8065;49.520;11.284;2023-02-10T06:53:11;99532.81;;;-2.76;71.71
15932;BME280;8065;49.520;11.284;2023-02-10T06:55:38;99526.69;;;-2.68;71.89
15932;BME280;8065;49.520;11.284;2023-02-10T06:58:04;99533.38;;;-2.59;72.01
15932;BME280;8065;49.520;11.284;2023-02-10T07:00:31;99532.91;;;-2.48;71.74
15932;BME280;8065;49.520;11.284;2023-02-10T07:02:59;99533.88;;;-2.70;72.43
15932;BME280;8065;49.520;11.284;2023-02-10T07:05:26;99536.75;;;-2.94;73.74
15932;BME280;8065;49.520;11.284;2023-02-10T07:07:52;99526.19;;;-2.78;74.11
15932;BME280;8065;49.520;11.284;2023-02-10T07:10:19;99526.06;;;-2.70;73.71
15932;BME280;8065;49.520;11.284;2023-02-10T07:12:46;99518.13;;;-2.47;73.22
15932;BME280;8065;49.520;11.284;2023-02-10T07:15:13;99525.00;;;-2.40;73.07
15932;BME280;8065;49.520;11.284;2023-02-10T07:17:39;99531.34;;;-2.27;71.97
15932;BME280;8065;49.520;11.284;2023-02-10T07:20:08;99530.25;;;-2.18;71.88
15932;BME280;8065;49.520;11.284;2023-02-10T07:22:35;99525.59;;;-2.23;72.33
15932;BME280;8065;49.520;11.284;2023-02-10T07:25:01;99533.34;;;-2.29;72.86
15932;BME280;8065;49.520;11.284;2023-02-10T07:27:28;99514.50;;;-2.10;72.42
15932;BME280;8065;49.520;11.284;2023-02-10T07:29:54;99512.53;;;-2.08;72.34
15932;BME280;8065;49.520;11.284;2023-02-10T07:32:21;99520.66;;;-1.96;72.26
15932;BME280;8065;49.520;11.284;2023-02-10T07:34:47;99517.31;;;-1.62;72.97
15932;BME280;8065;49.520;11.284;2023-02-10T07:37:16;99510.59;;;-1.50;73.05
15932;BME280;8065;49.520;11.284;2023-02-10T07:39:42;99515.72;;;-1.36;72.42
15932;BME280;8065;49.520;11.284;2023-02-10T07:42:09;99512.72;;;-1.05;71.84
15932;BME280;8065;49.520;11.284;2023-02-10T07:44:36;99511.94;;;-0.98;72.23
15932;BME280;8065;49.520;11.284;2023-02-10T07:47:05;99510.66;;;-0.68;70.90
15932;BME280;8065;49.520;11.284;2023-02-10T07:49:31;99507.75;;;-0.39;70.76
15932;BME280;8065;49.520;11.284;2023-02-10T07:51:57;99502.06;;;-0.62;71.34
15932;BME280;8065;49.520;11.284;2023-02-10T07:54:25;99496.31;;;-0.38;70.22
15932;BME280;8065;49.520;11.284;2023-02-10T07:56:52;99506.03;;;-0.12;70.08
15932;BME280;8065;49.520;11.284;2023-02-10T07:59:18;99509.22;;;-0.16;69.30
15932;BME280;8065;49.520;11.284;2023-02-10T08:01:45;99506.00;;;0.02;70.13
15932;BME280;8065;49.520;11.284;2023-02-10T08:04:12;99512.47;;;-0.01;69.21
15932;BME280;8065;49.520;11.284;2023-02-10T08:06:39;99510.06;;;0.44;69.33
15932;BME280;8065;49.520;11.284;2023-02-10T08:09:06;99509.66;;;0.40;70.00
15932;BME280;8065;49.520;11.284;2023-02-10T08:11:34;99517.84;;;0.90;69.19
15932;BME280;8065;49.520;11.284;2023-02-10T08:14:01;99514.56;;;1.21;68.69
15932;BME280;8065;49.520;11.284;2023-02-10T08:16:27;99522.81;;;1.18;68.46
15932;BME280;8065;49.520;11.284;2023-02-10T08:18:54;99522.47;;;1.01;67.67
15932;BME280;8065;49.520;11.284;2023-02-10T08:21:20;99528.28;;;1.10;67.54
15932;BME280;8065;49.520;11.284;2023-02-10T08:23:47;99530.69;;;1.05;67.31
15932;BME280;8065;49.520;11.284;2023-02-10T08:26:19;99522.78;;;1.31;66.84
15932;BME280;8065;49.520;11.284;2023-02-10T08:28:47;99530.56;;;1.89;66.28
15932;BME280;8065;49.520;11.284;2023-02-10T08:31:14;99534.38;;;2.24;64.57
15932;BME280;8065;49.520;11.284;2023-02-10T08:33:41;99539.47;;;2.44;64.19
15932;BME280;8065;49.520;11.284;2023-02-10T08:36:10;99536.53;;;2.77;63.26
15932;BME280;8065;49.520;11.284;2023-02-10T08:38:37;99535.50;;;2.35;64.02
15932;BME280;8065;49.520;11.284;2023-02-10T08:41:04;99536.13;;;2.80;63.39
15932;BME280;8065;49.520;11.284;2023-02-10T08:43:31;99546.88;;;2.72;64.34
15932;BME280;8065;49.520;11.284;2023-02-10T08:46:00;99543.75;;;3.07;63.54
15932;BME280;8065;49.520;11.284;2023-02-10T08:48:27;99540.16;;;3.01;63.09
15932;BME280;8065;49.520;11.284;2023-02-10T08:50:54;99535.88;;;3.73;63.39
15932;BME280;8065;49.520;11.284;2023-02-10T08:53:20;99537.44;;;4.22;61.15
15932;BME280;8065;49.520;11.284;2023-02-10T08:55:55;99535.66;;;4.93;58.51
15932;BME280;8065;49.520;11.284;2023-02-10T08:58:22;99527.75;;;5.16;58.34
15932;BME280;8065;49.520;11.284;2023-02-10T09:00:48;99526.88;;;5.39;57.78
15932;BME280;8065;49.520;11.284;2023-02-10T09:03:16;99531.88;;;5.93;56.26
15932;BME280;8065;49.520;11.284;2023-02-10T09:05:42;99533.13;;;6.35;55.91
15932;BME280;8065;49.520;11.284;2023-02-10T09:08:11;99538.50;;;6.57;54.55
15932;BME280;8065;49.520;11.284;2023-02-10T09:10:38;99539.94;;;6.81;54.78
15932;BME280;8065;49.520;11.284;2023-02-10T09:13:04;99546.28;;;7.41;53.13
15932;BME280;8065;49.520;11.284;2023-02-10T09:15:33;99557.75;;;6.24;55.40
15932;BME280;8065;49.520;11.284;2023-02-10T09:18:00;99554.13;;;6.75;56.27
15932;BME280;8065;49.520;11.284;2023-02-10T09:20:28;99552.34;;;6.31;55.12
15932;BME280;8065;49.520;11.284;2023-02-10T09:22:54;99557.00;;;6.74;55.74
15932;BME280;8065;49.520;11.284;2023-02-10T09:25:20;99558.53;;;6.86;54.83
15932;BME280;8065;49.520;11.284;2023-02-10T09:27:48;99558.22;;;7.43;54.57
15932;BME280;8065;49.520;11.284;2023-02-10T09:30:14;99552.81;;;8.04;53.23
15932;BME280;8065;49.520;11.284;2023-02-10T09:32:41;99553.94;;;8.35;52.32
15932;BME280;8065;49.520;11.284;2023-02-10T09:35:07;99554.97;;;8.34;52.34
15932;BME280;8065;49.520;11.284;2023-02-10T09:37:35;99559.31;;;8.45;51.21
15932;BME280;8065;49.520;11.284;2023-02-10T09:40:01;99556.66;;;8.45;51.27
15932;BME280;8065;49.520;11.284;2023-02-10T09:42:38;99555.41;;;8.90;51.09
15932;BME280;8065;49.520;11.284;2023-02-10T09:45:11;99555.00;;;9.08;50.30
15932;BME280;8065;49.520;11.284;2023-02-10T09:47:44;99550.75;;;9.07;50.12
15932;BME280;8065;49.520;11.284;2023-02-10T09:50:36;99550.44;;;9.56;50.07
15932;BME280;8065;49.520;11.284;2023-02-10T09:53:11;99545.28;;;8.81;50.27
15932;BME280;8065;49.520;11.284;2023-02-10T09:55:41;99552.97;;;9.25;50.08
15932;BME280;8065;49.520;11.284;2023-02-10T09:58:15;99551.97;;;9.36;50.34
15932;BME280;8065;49.520;11.284;2023-02-10T10:00:44;99556.56;;;9.04;51.88
15932;BME280;8065;49.520;11.284;2023-02-10T10:03:14;99559.03;;;8.78;51.83
15932;BME280;8065;49.520;11.284;2023-02-10T10:05:48;99548.91;;;9.75;49.77
15932;BME280;8065;49.520;11.284;2023-02-10T10:08:23;99541.38;;;10.29;49.33
15932;BME280;8065;49.520;11.284;2023-02-10T10:10:51;99549.91;;;9.59;49.29
15932;BME280;8065;49.520;11.284;2023-02-10T10:13:21;99551.16;;;10.18;49.17
15932;BME280;8065;49.520;11.284;2023-02-10T10:16:02;99546.16;;;10.37;48.49
15932;BME280;8065;49.520;11.284;2023-02-10T10:18:39;99548.00;;;10.42;47.69
15932;BME280;8065;49.520;11.284;2023-02-10T10:21:15;99551.69;;;10.92;47.30
15932;BME280;8065;49.520;11.284;2023-02-10T10:23:54;99545.19;;;11.33;46.34
15932;BME280;8065;49.520;11.284;2023-02-10T10:26:45;99545.72;;;11.40;45.63
15932;BME280;8065;49.520;11.284;2023-02-10T10:29:21;99555.91;;;10.06;48.24
15932;BME280;8065;49.520;11.284;2023-02-10T10:31:55;99549.25;;;11.21;47.05
15932;BME280;8065;49.520;11.284;2023-02-10T10:34:31;99536.22;;;11.89;46.38
15932;BME280;8065;49.520;11.284;2023-02-10T10:37:00;99546.13;;;11.78;46.30
15932;BME280;8065;49.520;11.284;2023-02-10T10:39:32;99549.22;;;12.34;45.12
15932;BME280;8065;49.520;11.284;2023-02-10T10:42:01;99544.34;;;12.75;44.46
15932;BME280;8065;49.520;11.284;2023-02-10T10:44:30;99543.72;;;12.89;44.21
15932;BME280;8065;49.520;11.284;2023-02-10T10:47:05;99541.72;;;12.70;43.99
15932;BME280;8065;49.520;11.284;2023-02-10T10:49:34;99543.16;;;12.92;43.49
15932;BME280;8065;49.520;11.284;2023-02-10T10:52:01;99538.88;;;12.28;43.81
15932;BME280;8065;49.520;11.284;2023-02-10T10:54:30;99547.94;;;11.18;45.93
15932;BME280;8065;49.520;11.284;2023-02-10T10:57:00;99550.13;;;10.75;46.28
15932;BME280;8065;49.520;11.284;2023-02-10T10:59:34;99536.56;;;10.57;47.18
15932;BME280;8065;49.520;11.284;2023-02-10T11:02:14;99533.59;;;10.99;46.35
15932;BME280;8065;49.520;11.284;2023-02-10T11:04:41;99531.50;;;10.86;47.37
15932;BME280;8065;49.520;11.284;2023-02-10T11:07:11;99532.31;;;10.50;47.99
15932;BME280;8065;49.520;11.284;2023-02-10T11:09:47;99528.84;;;9.27;49.55
15932;BME280;8065;49.520;11.284;2023-02-10T11:12:18;99528.75;;;9.84;49.80
15932;BME280;8065;49.520;11.284;2023-02-10T11:14:48;99531.41;;;9.79;48.93
15932;BME280;8065;49.520;11.284;2023-02-10T11:17:21;99535.47;;;9.29;50.35
15932;BME280;8065;49.520;11.284;2023-02-10T11:19:55;99529.59;;;9.17;49.94
15932;BME280;8065;49.520;11.284;2023-02-10T11:22:22;99531.41;;;8.69;51.24
15932;BME280;8065;49.520;11.284;2023-02-10T11:24:52;99527.47;;;9.19;51.39
15932;BME280;8065;49.520;11.284;2023-02-10T11:27:20;99524.56;;;9.20;49.70
15932;BME280;8065;49.520;11.284;2023-02-10T11:29:48;99520.16;;;8.94;51.17
15932;BME280;8065;49.520;11.284;2023-02-10T11:32:18;99520.53;;;9.08;50.87
15932;BME280;8065;49.520;11.284;2023-02-10T11:34:46;99517.03;;;9.02;51.12
15932;BME280;8065;49.520;11.284;2023-02-10T11:37:21;99521.38;;;8.76;51.77
15932;BME280;8065;49.520;11.284;2023-02-10T11:39:50;99523.66;;;9.00;50.82
15932;BME280;8065;49.520;11.284;2023-02-10T11:42:20;99520.97;;;8.95;51.70
15932;BME280;8065;49.520;11.284;2023-02-10T11:44:55;99525.66;;;9.25;51.02
15932;BME280;8065;49.520;11.284;2023-02-10T11:47:23;99518.53;;;9.35;51.12
15932;BME280;8065;49.520;11.284;2023-02-10T11:49:50;99516.94;;;9.34;51.04
15932;BME280;8065;49.520;11.284;2023-02-10T11:52:18;99507.25;;;9.08;50.25
15932;BME280;8065;49.520;11.284;2023-02-10T11:54:47;99515.28;;;9.18;50.66
15932;BME280;8065;49.520;11.284;2023-02-10T11:57:28;99505.66;;;9.07;50.34
15932;BME280;8065;49.520;11.284;2023-02-10T12:00:16;99507.75;;;9.00;50.41
15932;BME280;8065;49.520;11.284;2023-02-10T12:03:00;99516.78;;;9.04;51.37
15932;BME280;8065;49.520;11.284;2023-02-10T12:05:37;99516.31;;;9.17;50.72
15932;BME280;8065;49.520;11.284;2023-02-10T12:08:15;99509.66;;;9.09;51.20
15932;BME280;8065;49.520;11.284;2023-02-10T12:10:47;99513.63;;;9.07;51.25
15932;BME280;8065;49.520;11.284;2023-02-10T12:13:20;99511.50;;;9.09;51.00
15932;BME280;8065;49.520;11.284;2023-02-10T12:16:02;99512.50;;;8.98;51.93
15932;BME280;8065;49.520;11.284;2023-02-10T12:18:39;99505.13;;;9.05;51.16
15932;BME280;8065;49.520;11.284;2023-02-10T12:21:19;99501.28;;;8.85;52.22
15932;BME280;8065;49.520;11.284;2023-02-10T12:24:07;99496.06;;;8.96;51.04
15932;BME280;8065;49.520;11.284;2023-02-10T12:26:41;99493.88;;;8.87;51.50
15932;BME280;8065;49.520;11.284;2023-02-10T12:29:21;99503.63;;;8.77;51.97
15932;BME280;8065;49.520;11.284;2023-02-10T12:31:59;99496.44;;;8.72;50.78
15932;BME280;8065;49.520;11.284;2023-02-10T12:34:42;99495.34;;;8.68;52.18
15932;BME280;8065;49.520;11.284;2023-02-10T12:37:18;99494.81;;;8.61;52.76
15932;BME280;8065;49.520;11.284;2023-02-10T12:40:20;99491.66;;;8.69;52.79
15932;BME280;8065;49.520;11.284;2023-02-10T12:42:54;99493.25;;;8.70;52.50
15932;BME280;8065;49.520;11.284;2023-02-10T12:45:28;99494.22;;;8.54;52.03
15932;BME280;8065;49.520;11.284;2023-02-10T12:48:09;99489.00;;;8.64;51.50
15932;BME280;8065;49.520;11.284;2023-02-10T12:51:03;99485.50;;;8.59;52.12
15932;BME280;8065;49.520;11.284;2023-02-10T12:53:39;99482.03;;;8.53;52.91
15932;BME280;8065;49.520;11.284;2023-02-10T12:56:11;99482.75;;;8.43;52.50
15932;BME280;8065;49.520;11.284;2023-02-10T12:58:43;99483.66;;;8.27;53.25
15932;BME280;8065;49.520;11.284;2023-02-10T13:01:17;99478.22;;;8.39;52.55
15932;BME280;8065;49.520;11.284;2023-02-10T13:03:48;99477.44;;;8.43;53.52
15932;BME280;8065;49.520;11.284;2023-02-10T13:06:25;99473.97;;;8.38;53.97
15932;BME280;8065;49.520;11.284;2023-02-10T13:08:58;99477.66;;;8.37;53.90
15932;BME280;8065;49.520;11.284;2023-02-10T13:11:34;99485.06;;;8.35;54.20
15932;BME280;8065;49.520;11.284;2023-02-10T13:14:05;99486.66;;;8.36;54.39
15932;BME280;8065;49.520;11.284;2023-02-10T13:16:36;99483.75;;;8.37;54.49